createdAt,value
2023-02-16T00:00:39.571Z,13.00
2023-02-16T00:03:28.314Z,13.90
2023-02-16T00:05:56.595Z,13.40
2023-02-16T00:08:25.087Z,14.10
2023-02-16T00:11:12.301Z,14.90
2023-02-16T00:13:53.092Z,14.00
2023-02-16T00:16:24.316Z,14.00
2023-02-16T00:18:53.222Z,14.80
2023-02-16T00:21:22.107Z,14.80
2023-02-16T00:23:50.900Z,13.80
2023-02-16T00:26:25.433Z,15.10
2023-02-16T00:28:58.833Z,15.50
2023-02-16T00:31:32.042Z,15.00
2023-02-16T00:34:25.172Z,15.40
2023-02-16T00:36:56.452Z,15.40
2023-02-16T00:39:25.736Z,17.80
2023-02-16T00:42:21.754Z,17.40
2023-02-16T00:44:56.321Z,15.30
2023-02-16T00:47:37.659Z,16.10
2023-02-16T00:50:45.332Z,15.80
2023-02-16T00:53:14.384Z,15.70
2023-02-16T00:55:44.049Z,15.50
2023-02-16T00:58:19.082Z,16.10
2023-02-16T01:00:58.516Z,15.90
2023-02-16T01:03:29.698Z,19.20
2023-02-16T01:06:17.388Z,21.10
2023-02-16T01:09:04.702Z,18.70
2023-02-16T01:11:35.029Z,16.60
2023-02-16T01:14:03.416Z,14.50
2023-02-16T01:16:38.672Z,15.00
2023-02-16T01:19:07.038Z,14.00
2023-02-16T01:21:35.422Z,14.90
2023-02-16T01:24:04.032Z,14.80
2023-02-16T01:26:37.716Z,14.60
2023-02-16T01:31:34.774Z,13.60
2023-02-16T01:34:04.200Z,13.10
2023-02-16T01:36:36.748Z,13.50
2023-02-16T01:39:08.337Z,13.60
2023-02-16T01:42:08.036Z,12.70
2023-02-16T01:44:51.465Z,13.10
2023-02-16T01:47:30.288Z,13.70
2023-02-16T01:50:02.135Z,14.10
2023-02-16T01:52:42.200Z,14.80
2023-02-16T01:55:28.698Z,13.30
2023-02-16T01:58:05.475Z,13.20
2023-02-16T02:00:49.317Z,13.20
2023-02-16T02:06:13.919Z,13.20
2023-02-16T02:09:08.088Z,21.30
2023-02-16T02:12:04.008Z,15.20
2023-02-16T02:14:38.563Z,14.20
2023-02-16T02:17:10.084Z,14.00
2023-02-16T02:20:01.618Z,14.20
2023-02-16T02:23:08.047Z,12.80
2023-02-16T02:25:36.327Z,12.90
2023-02-16T02:28:22.418Z,12.10
2023-02-16T02:31:12.205Z,12.50
2023-02-16T02:34:05.665Z,12.40
2023-02-16T02:36:42.426Z,13.20
2023-02-16T02:39:16.845Z,11.40
2023-02-16T02:42:04.673Z,11.50
2023-02-16T02:44:47.386Z,11.60
2023-02-16T02:47:16.594Z,11.90
2023-02-16T02:49:53.077Z,12.80
2023-02-16T02:52:23.162Z,11.80
2023-02-16T02:55:10.294Z,12.80
2023-02-16T02:58:04.773Z,15.00
2023-02-16T03:00:48.073Z,15.30
2023-02-16T03:03:32.153Z,14.60
2023-02-16T03:06:05.742Z,14.50
2023-02-16T03:08:36.480Z,14.20
2023-02-16T03:11:32.908Z,13.20
2023-02-16T03:14:07.123Z,12.90
2023-02-16T03:16:41.538Z,10.50
2023-02-16T03:19:32.540Z,11.10
2023-02-16T03:22:21.495Z,12.10
2023-02-16T03:25:08.608Z,10.90
2023-02-16T03:28:00.427Z,12.20
2023-02-16T03:30:30.287Z,11.40
2023-02-16T03:32:58.932Z,12.00
2023-02-16T03:35:28.958Z,11.40
2023-02-16T03:37:57.340Z,11.50
2023-02-16T03:40:29.109Z,11.30
2023-02-16T03:43:00.660Z,12.10
2023-02-16T03:45:31.427Z,11.00
2023-02-16T03:47:59.994Z,12.50
2023-02-16T03:50:28.789Z,12.50
2023-02-16T03:53:07.188Z,12.40
2023-02-16T03:55:41.624Z,12.00
2023-02-16T03:58:12.867Z,11.50
2023-02-16T04:00:41.758Z,12.00
2023-02-16T04:03:10.744Z,12.50
2023-02-16T04:05:39.437Z,12.50
2023-02-16T04:08:09.147Z,13.00
2023-02-16T04:10:38.796Z,14.40
2023-02-16T04:13:07.174Z,12.10
2023-02-16T04:15:36.066Z,11.60
2023-02-16T04:18:04.552Z,11.70
2023-02-16T04:20:35.290Z,11.50
2023-02-16T04:23:04.047Z,11.30
2023-02-16T04:25:32.461Z,11.50
2023-02-16T04:28:00.867Z,12.00
2023-02-16T04:30:32.021Z,11.90
2023-02-16T04:33:00.280Z,12.10
2023-02-16T04:35:28.460Z,10.20
2023-02-16T04:37:56.735Z,11.30
2023-02-16T04:40:25.525Z,11.70
2023-02-16T04:42:54.322Z,11.60
2023-02-16T04:45:22.918Z,11.30
2023-02-16T04:47:51.700Z,10.30
2023-02-16T04:50:20.293Z,13.30
2023-02-16T04:52:48.986Z,37.80
2023-02-16T04:55:17.366Z,26.90
2023-02-16T04:57:45.548Z,20.70
2023-02-16T05:00:14.441Z,17.40
2023-02-16T05:02:43.032Z,16.10
2023-02-16T05:05:11.299Z,13.70
2023-02-16T05:07:39.497Z,11.80
2023-02-16T05:10:09.211Z,11.90
2023-02-16T05:12:56.222Z,12.00
2023-02-16T05:15:24.601Z,11.80
2023-02-16T05:17:52.787Z,12.50
2023-02-16T05:20:41.326Z,11.70
2023-02-16T05:23:09.586Z,12.10
2023-02-16T05:25:37.890Z,15.90
2023-02-16T05:28:06.290Z,14.10
2023-02-16T05:30:34.903Z,14.20
2023-02-16T05:33:03.860Z,12.70
2023-02-16T05:35:34.621Z,13.00
2023-02-16T05:38:02.886Z,13.20
2023-02-16T05:40:31.484Z,24.10
2023-02-16T05:42:59.862Z,32.00
2023-02-16T05:45:28.346Z,22.30
2023-02-16T05:47:56.840Z,15.30
2023-02-16T05:50:25.428Z,14.60
2023-02-16T05:52:53.910Z,15.20
2023-02-16T05:55:22.091Z,12.60
2023-02-16T05:57:50.478Z,14.80
2023-02-16T06:00:19.275Z,13.30
2023-02-16T06:02:47.660Z,14.10
2023-02-16T06:05:16.134Z,14.70
2023-02-16T06:07:45.669Z,17.30
2023-02-16T06:10:16.512Z,20.30
2023-02-16T06:12:45.294Z,29.30
2023-02-16T06:15:13.576Z,38.00
2023-02-16T06:17:44.688Z,27.20
2023-02-16T06:20:13.305Z,28.10
2023-02-16T06:22:41.501Z,21.10
2023-02-16T06:25:09.677Z,21.60
2023-02-16T06:27:38.707Z,23.40
2023-02-16T06:30:08.819Z,25.30
2023-02-16T06:32:37.127Z,27.10
2023-02-16T06:35:05.939Z,31.60
2023-02-16T06:37:34.451Z,33.80
2023-02-16T06:40:02.834Z,30.50
2023-02-16T06:42:31.123Z,29.40
2023-02-16T06:44:59.501Z,26.60
2023-02-16T06:47:27.681Z,29.40
2023-02-16T06:49:56.599Z,32.50
2023-02-16T06:52:25.479Z,34.00
2023-02-16T06:54:53.860Z,33.90
2023-02-16T06:57:22.550Z,39.70
2023-02-16T06:59:50.931Z,34.10
2023-02-16T07:02:19.527Z,26.50
2023-02-16T07:04:47.803Z,23.80
2023-02-16T07:07:16.186Z,30.30
2023-02-16T07:09:44.688Z,23.40
2023-02-16T07:12:13.166Z,18.70
2023-02-16T07:14:43.818Z,18.60
2023-02-16T07:17:12.288Z,20.50
2023-02-16T07:19:40.871Z,17.80
2023-02-16T07:22:09.281Z,20.50
2023-02-16T07:24:37.544Z,18.00
2023-02-16T07:27:06.141Z,19.30
2023-02-16T07:29:34.585Z,18.20
2023-02-16T07:32:04.031Z,17.20
2023-02-16T07:34:33.090Z,19.50
2023-02-16T07:37:01.508Z,17.90
2023-02-16T07:39:31.122Z,19.30
2023-02-16T07:41:59.603Z,18.50
2023-02-16T07:44:28.000Z,19.70
2023-02-16T07:46:56.373Z,17.40
2023-02-16T07:49:24.758Z,19.20
2023-02-16T07:51:53.249Z,19.80
2023-02-16T07:54:21.526Z,20.70
2023-02-16T07:56:49.807Z,20.60
2023-02-16T07:59:18.296Z,22.30
2023-02-16T08:01:46.943Z,26.20
2023-02-16T08:04:15.885Z,29.40
2023-02-16T08:06:44.366Z,28.70
2023-02-16T08:09:12.544Z,29.20
2023-02-16T08:11:41.379Z,28.40
2023-02-16T08:14:09.890Z,25.90
2023-02-16T08:16:38.519Z,26.60
2023-02-16T08:19:06.909Z,25.80
2023-02-16T08:21:35.397Z,26.20
2023-02-16T08:24:07.145Z,25.60
2023-02-16T08:26:39.499Z,27.40
2023-02-16T08:29:10.375Z,26.30
2023-02-16T08:31:39.160Z,23.70
2023-02-16T08:34:08.018Z,19.40
2023-02-16T08:36:38.713Z,21.80
2023-02-16T08:39:11.793Z,21.00
2023-02-16T08:41:40.768Z,19.90
2023-02-16T08:44:09.960Z,20.40
2023-02-16T08:46:40.525Z,18.60
2023-02-16T08:49:10.650Z,20.50
2023-02-16T08:51:44.741Z,18.20
2023-02-16T08:54:19.392Z,16.70
2023-02-16T08:56:48.287Z,16.70
2023-02-16T08:59:19.949Z,17.80
2023-02-16T09:01:49.378Z,16.50
2023-02-16T09:04:20.155Z,17.00
2023-02-16T09:06:49.139Z,15.40
2023-02-16T09:09:18.036Z,16.80
2023-02-16T09:11:46.689Z,15.10
2023-02-16T09:14:18.545Z,15.70
2023-02-16T09:16:46.966Z,16.30
2023-02-16T09:19:17.792Z,18.00
2023-02-16T09:21:46.972Z,16.20
2023-02-16T09:24:16.577Z,17.00
2023-02-16T09:26:44.899Z,15.80
2023-02-16T09:29:14.141Z,17.00
2023-02-16T09:31:44.496Z,16.80
2023-02-16T09:34:19.730Z,17.90
2023-02-16T09:36:49.026Z,17.20
2023-02-16T09:39:18.813Z,17.80
2023-02-16T09:42:05.457Z,15.80
2023-02-16T09:44:33.760Z,16.50
2023-02-16T09:47:06.322Z,15.90
2023-02-16T09:49:44.328Z,16.50
2023-02-16T09:52:28.374Z,14.70
2023-02-16T09:54:59.674Z,14.90
2023-02-16T09:57:41.455Z,15.30
2023-02-16T10:00:24.840Z,14.10
2023-02-16T10:05:43.602Z,13.80
2023-02-16T10:08:16.898Z,13.30
2023-02-16T10:10:50.516Z,10.70
2023-02-16T10:13:47.336Z,11.70
2023-02-16T10:16:27.279Z,11.90
2023-02-16T10:18:59.172Z,13.60
2023-02-16T10:21:31.415Z,11.60
2023-02-16T10:24:06.162Z,13.00
2023-02-16T10:26:48.043Z,13.40
2023-02-16T10:29:19.883Z,12.80
2023-02-16T10:31:56.182Z,11.10
2023-02-16T10:34:50.568Z,11.60
2023-02-16T10:37:43.804Z,11.00
2023-02-16T10:40:18.539Z,11.70
2023-02-16T10:43:07.331Z,10.50
2023-02-16T10:45:46.406Z,9.80
2023-02-16T10:48:16.141Z,10.10
2023-02-16T10:51:13.063Z,11.10
2023-02-16T10:53:55.676Z,10.80
2023-02-16T10:56:34.402Z,10.80
2023-02-16T10:59:07.692Z,9.50
2023-02-16T11:01:44.105Z,7.90
2023-02-16T11:04:45.088Z,7.50
2023-02-16T11:07:32.466Z,10.40
2023-02-16T11:10:19.837Z,11.50
2023-02-16T11:12:57.631Z,7.70
2023-02-16T11:15:27.128Z,5.80
2023-02-16T11:18:20.084Z,7.80
2023-02-16T11:20:48.255Z,8.50
2023-02-16T11:23:36.913Z,7.30
2023-02-16T11:26:11.934Z,7.40
2023-02-16T11:28:43.602Z,7.20
2023-02-16T11:31:27.347Z,6.90
2023-02-16T11:34:06.572Z,4.40
2023-02-16T11:36:39.460Z,3.50
2023-02-16T11:39:13.997Z,3.80
2023-02-16T11:41:58.018Z,4.00
2023-02-16T11:44:28.244Z,5.10
2023-02-16T11:46:59.590Z,4.90
2023-02-16T11:49:42.179Z,5.00
2023-02-16T11:52:29.617Z,5.40
2023-02-16T11:55:00.817Z,5.00
2023-02-16T11:57:35.958Z,5.90
2023-02-16T12:00:26.917Z,7.00
2023-02-16T12:03:08.297Z,10.80
2023-02-16T12:05:55.088Z,7.10
2023-02-16T12:08:48.030Z,7.30
2023-02-16T12:11:33.525Z,8.20
2023-02-16T12:14:04.861Z,7.20
2023-02-16T12:16:45.216Z,6.80
2023-02-16T12:19:25.372Z,7.10
2023-02-16T12:21:59.285Z,8.00
2023-02-16T12:24:27.768Z,6.30
2023-02-16T12:27:07.182Z,7.00
2023-02-16T12:30:01.296Z,6.90
2023-02-16T12:32:50.647Z,7.20
2023-02-16T12:35:42.044Z,7.10
2023-02-16T12:38:38.520Z,6.10
2023-02-16T12:41:28.644Z,7.00
2023-02-16T12:44:04.014Z,6.70
2023-02-16T12:46:42.192Z,7.10
2023-02-16T12:49:13.446Z,6.90
2023-02-16T12:51:48.425Z,6.30
2023-02-16T12:54:30.171Z,6.70
2023-02-16T12:57:04.908Z,6.40
2023-02-16T12:59:44.543Z,5.40
2023-02-16T13:02:23.348Z,5.80
2023-02-16T13:05:14.722Z,5.50
2023-02-16T13:07:47.197Z,6.00
2023-02-16T13:10:41.735Z,6.40
2023-02-16T13:13:18.013Z,5.60
2023-02-16T13:15:48.725Z,5.70
2023-02-16T13:18:30.466Z,4.70
2023-02-16T13:21:04.442Z,5.20
2023-02-16T13:23:47.459Z,6.20
2023-02-16T13:26:36.677Z,5.40
2023-02-16T13:29:39.451Z,5.10
2023-02-16T13:32:22.940Z,5.30
2023-02-16T13:35:13.198Z,4.90
2023-02-16T13:38:06.461Z,5.30
2023-02-16T13:40:48.042Z,4.90
2023-02-16T13:43:32.020Z,5.10
2023-02-16T13:46:07.824Z,5.30
2023-02-16T13:48:48.809Z,6.20
2023-02-16T13:51:21.073Z,5.20
2023-02-16T13:53:56.678Z,5.30
2023-02-16T13:56:33.703Z,5.60
2023-02-16T13:59:17.534Z,5.10
2023-02-16T14:01:51.725Z,5.10
2023-02-16T14:04:22.986Z,6.10
2023-02-16T14:07:30.297Z,5.30
2023-02-16T14:09:58.463Z,5.20
2023-02-16T14:12:33.994Z,6.00
2023-02-16T14:15:18.561Z,5.40
2023-02-16T14:17:47.466Z,7.30
2023-02-16T14:20:16.074Z,5.70
2023-02-16T14:22:44.233Z,5.60
2023-02-16T14:25:24.597Z,5.50
2023-02-16T14:27:54.458Z,6.10
2023-02-16T14:30:44.304Z,5.20
2023-02-16T14:33:12.659Z,5.40
2023-02-16T14:35:46.884Z,5.00
2023-02-16T14:38:41.661Z,5.80
2023-02-16T14:44:06.389Z,6.10
2023-02-16T14:47:26.124Z,6.30
2023-02-16T14:49:57.476Z,6.40
2023-02-16T14:52:44.073Z,7.30
2023-02-16T14:55:40.397Z,6.50
2023-02-16T14:58:31.196Z,7.00
2023-02-16T15:01:12.751Z,6.90
2023-02-16T15:03:45.536Z,5.90
2023-02-16T15:06:23.666Z,5.80
2023-02-16T15:08:59.133Z,6.60
2023-02-16T15:11:56.968Z,5.70
2023-02-16T15:14:27.057Z,6.80
2023-02-16T15:16:58.009Z,7.90
2023-02-16T15:19:31.220Z,11.70
2023-02-16T15:22:08.728Z,7.50
2023-02-16T15:24:37.433Z,9.40
2023-02-16T15:27:06.205Z,10.00
2023-02-16T15:29:34.387Z,8.90
2023-02-16T15:32:08.916Z,7.00
2023-02-16T15:34:37.710Z,12.00
2023-02-16T15:37:30.040Z,13.50
2023-02-16T15:40:25.118Z,15.50
2023-02-16T15:42:55.996Z,16.10
2023-02-16T15:45:38.216Z,15.80
2023-02-16T15:48:46.136Z,17.30
2023-02-16T15:51:27.034Z,17.50
2023-02-16T15:54:05.707Z,18.20
2023-02-16T15:56:38.790Z,15.90
2023-02-16T15:59:49.079Z,14.50
2023-02-16T16:02:19.510Z,13.60
2023-02-16T16:04:55.069Z,12.20
2023-02-16T16:07:41.902Z,9.60
2023-02-16T16:10:26.368Z,11.30
2023-02-16T16:13:01.958Z,10.60
2023-02-16T16:15:34.693Z,10.00
2023-02-16T16:18:05.580Z,12.00
2023-02-16T16:20:38.004Z,11.30
2023-02-16T16:23:26.049Z,13.80
2023-02-16T16:25:55.304Z,12.00
2023-02-16T16:28:27.270Z,10.10
2023-02-16T16:31:18.219Z,10.10
2023-02-16T16:34:00.363Z,13.80
2023-02-16T16:36:34.680Z,12.40
2023-02-16T16:39:22.269Z,11.50
2023-02-16T16:42:14.736Z,10.20
2023-02-16T16:44:53.872Z,9.30
2023-02-16T16:47:45.478Z,10.10
2023-02-16T16:50:37.181Z,10.50
2023-02-16T16:53:28.505Z,11.80
2023-02-16T16:55:57.847Z,13.30
2023-02-16T16:58:26.505Z,12.00
2023-02-16T17:00:55.089Z,11.30
2023-02-16T17:03:23.829Z,11.80
2023-02-16T17:05:52.367Z,15.90
2023-02-16T17:08:20.759Z,20.70
2023-02-16T17:10:49.747Z,15.20
2023-02-16T17:13:20.948Z,12.80
2023-02-16T17:16:36.766Z,14.40
2023-02-16T17:19:05.254Z,12.90
2023-02-16T17:21:33.433Z,13.40
2023-02-16T17:24:01.608Z,11.10
2023-02-16T17:26:30.098Z,11.00
2023-02-16T17:28:58.480Z,10.90
2023-02-16T17:31:27.052Z,9.90
2023-02-16T17:33:55.760Z,9.70
2023-02-16T17:36:26.609Z,9.70
2023-02-16T17:38:55.295Z,10.90
2023-02-16T17:41:29.206Z,10.50
2023-02-16T17:43:58.012Z,10.10
2023-02-16T17:46:28.360Z,9.50
2023-02-16T17:48:57.835Z,10.30
2023-02-16T17:51:26.984Z,10.00
2023-02-16T17:53:55.834Z,10.90
2023-02-16T17:56:25.404Z,10.70
2023-02-16T17:58:53.932Z,10.90
2023-02-16T18:01:23.002Z,10.40
2023-02-16T18:03:52.540Z,10.80
2023-02-16T18:06:26.346Z,11.40
2023-02-16T18:08:56.575Z,15.40
2023-02-16T18:11:25.370Z,17.20
2023-02-16T18:13:53.661Z,22.80
2023-02-16T18:16:27.088Z,20.40
2023-02-16T18:18:57.440Z,16.40
2023-02-16T18:21:25.769Z,19.40
2023-02-16T18:23:53.990Z,19.00
2023-02-16T18:26:23.977Z,21.40
2023-02-16T18:28:52.468Z,26.10
2023-02-16T18:31:20.963Z,18.90
2023-02-16T18:33:49.427Z,20.20
2023-02-16T18:36:18.330Z,18.20
2023-02-16T18:38:46.825Z,16.30
2023-02-16T18:41:15.607Z,16.10
2023-02-16T18:43:43.997Z,14.80
2023-02-16T18:46:12.306Z,17.40
2023-02-16T18:48:40.867Z,22.80
2023-02-16T18:51:10.928Z,22.20
2023-02-16T18:53:39.273Z,19.80
2023-02-16T18:56:11.104Z,18.80
2023-02-16T18:58:39.627Z,20.00
2023-02-16T19:01:26.707Z,19.40
2023-02-16T19:03:55.865Z,19.40
2023-02-16T19:06:24.657Z,31.30
2023-02-16T19:08:53.424Z,27.10
2023-02-16T19:11:22.529Z,20.80
2023-02-16T19:13:50.700Z,23.00
2023-02-16T19:16:18.957Z,20.20
2023-02-16T19:18:47.368Z,20.70
2023-02-16T19:21:15.652Z,24.80
2023-02-16T19:23:44.147Z,24.90
2023-02-16T19:26:15.059Z,23.80
2023-02-16T19:28:44.178Z,21.90
2023-02-16T19:31:22.732Z,21.60
2023-02-16T19:33:51.899Z,20.80
2023-02-16T19:36:20.557Z,20.50
2023-02-16T19:38:49.497Z,19.70
2023-02-16T19:41:22.574Z,20.30
2023-02-16T19:43:51.984Z,20.20
2023-02-16T19:46:21.036Z,20.60
2023-02-16T19:48:49.568Z,21.90
2023-02-16T19:51:18.472Z,22.40
2023-02-16T19:53:47.997Z,21.00
2023-02-16T19:56:19.530Z,25.00
2023-02-16T19:58:48.647Z,29.30
2023-02-16T20:01:22.402Z,25.30
2023-02-16T20:03:52.877Z,24.90
2023-02-16T20:06:33.635Z,31.30
2023-02-16T20:09:02.130Z,26.90
2023-02-16T20:11:31.732Z,27.60
2023-02-16T20:14:00.338Z,39.10
2023-02-16T20:16:29.414Z,27.90
2023-02-16T20:18:59.069Z,28.90
2023-02-16T20:21:29.386Z,30.80
2023-02-16T20:24:01.334Z,26.00
2023-02-16T20:26:36.073Z,24.00
2023-02-16T20:29:06.944Z,20.90
2023-02-16T20:31:41.136Z,21.90
2023-02-16T20:34:10.325Z,25.30
2023-02-16T20:36:38.619Z,25.90
2023-02-16T20:39:08.341Z,24.00
2023-02-16T20:41:37.015Z,22.20
2023-02-16T20:44:05.760Z,21.30
2023-02-16T20:46:34.141Z,19.90
2023-02-16T20:49:03.599Z,19.50
2023-02-16T20:51:32.082Z,20.90
2023-02-16T20:54:01.332Z,21.00
2023-02-16T20:56:29.874Z,20.30
2023-02-16T20:58:59.195Z,22.60
2023-02-16T21:01:32.169Z,19.60
2023-02-16T21:04:00.966Z,19.70
2023-02-16T21:06:29.492Z,18.80
2023-02-16T21:08:58.248Z,20.20
2023-02-16T21:11:26.727Z,20.40
2023-02-16T21:13:55.021Z,17.50
2023-02-16T21:16:23.931Z,19.30
2023-02-16T21:18:52.397Z,22.10
2023-02-16T21:21:20.888Z,22.30
2023-02-16T21:23:53.315Z,22.00
2023-02-16T21:26:24.637Z,22.10
2023-02-16T21:28:54.391Z,26.40
2023-02-16T21:31:25.089Z,23.40
2023-02-16T21:33:53.858Z,21.60
2023-02-16T21:36:25.319Z,19.80
2023-02-16T21:38:54.325Z,19.80
2023-02-16T21:41:30.570Z,21.70
2023-02-16T21:44:07.112Z,27.10
2023-02-16T21:46:46.989Z,25.90
2023-02-16T21:49:18.248Z,24.50
2023-02-16T21:51:48.254Z,21.70
2023-02-16T21:54:39.304Z,21.60
2023-02-16T21:57:07.442Z,18.10
2023-02-16T21:59:35.945Z,18.00
2023-02-16T22:02:04.617Z,17.90
2023-02-16T22:04:33.518Z,19.40
2023-02-16T22:07:02.120Z,17.70
2023-02-16T22:09:30.281Z,17.90
2023-02-16T22:11:58.465Z,19.20
2023-02-16T22:14:27.158Z,19.70
2023-02-16T22:16:55.652Z,18.50
2023-02-16T22:19:24.025Z,20.10
2023-02-16T22:21:52.617Z,19.70
2023-02-16T22:24:21.039Z,20.50
2023-02-16T22:26:50.360Z,18.30
2023-02-16T22:29:18.994Z,20.20
2023-02-16T22:31:49.572Z,20.90
2023-02-16T22:34:21.952Z,26.10
2023-02-16T22:36:51.004Z,24.70
2023-02-16T22:39:20.431Z,28.90
2023-02-16T22:41:50.648Z,39.40
2023-02-16T22:44:19.241Z,28.80
2023-02-16T22:46:47.514Z,27.30
2023-02-16T22:49:16.114Z,22.20
2023-02-16T22:51:44.394Z,21.40
2023-02-16T22:54:16.388Z,20.10
2023-02-16T22:56:44.748Z,21.60
2023-02-16T22:59:13.801Z,20.00
2023-02-16T23:01:42.289Z,20.80
2023-02-16T23:04:15.680Z,21.70
2023-02-16T23:06:47.894Z,22.00
2023-02-16T23:09:19.556Z,21.60
2023-02-16T23:11:49.272Z,22.30
2023-02-16T23:14:18.845Z,21.20
2023-02-16T23:16:49.654Z,22.80
2023-02-16T23:19:21.797Z,21.60
2023-02-16T23:21:50.389Z,21.80
2023-02-16T23:24:21.948Z,20.90
2023-02-16T23:26:51.360Z,21.60
2023-02-16T23:29:19.522Z,22.00
2023-02-16T23:31:49.029Z,21.10
2023-02-16T23:34:18.240Z,21.80
2023-02-16T23:36:47.039Z,21.60
2023-02-16T23:39:17.779Z,22.50
2023-02-16T23:41:46.861Z,21.70
2023-02-16T23:44:15.255Z,21.60
2023-02-16T23:46:43.637Z,21.50
2023-02-16T23:49:12.168Z,21.20
2023-02-16T23:51:40.502Z,22.60
2023-02-16T23:54:11.040Z,23.30
2023-02-16T23:56:40.039Z,21.80
2023-02-16T23:59:08.216Z,20.70
